Time;durP1;ratioP1;P1;durP2;ratioP2;P2;SDS_P1;SDS_P2;PMS_P1;PMS_P2;Temp;Humidity;BMP_temperature;BMP_pressure;BME280_temperature;BME280_humidity;BME280_pressure;Samples;Min_cycle;Max_cycle;Signal;HPM_P1;HPM_P2
2023/06/03 01:07:21;;;;;;;8.98;4.05;;;;;;;12.18;100.00;101750.19;6155043;23;20013;-81
2023/06/03 01:10:15;;;;;;;9.27;4.75;;;;;;;12.15;100.00;101747.69;6187790;23;20009;-81
2023/06/03 01:46:19;;;;;;;6.68;4.15;;;;;;;11.97;100.00;101743.47;6079192;23;20036;-81
2023/06/03 01:51:26;;;;;;;12.35;3.92;;;;;;;11.84;100.00;101716.00;6183387;23;20012;-81
2023/06/03 01:53:52;;;;;;;10.70;4.18;;;;;;;11.86;100.00;101742.34;6187592;23;20086;-82
2023/06/03 01:56:17;;;;;;;9.73;4.40;;;;;;;11.86;100.00;101736.00;6187003;23;20024;-83
2023/06/03 01:58:43;;;;;;;9.10;3.80;;;;;;;11.73;100.00;101723.13;6163054;23;20009;-81
2023/06/03 02:45:08;;;;;;;7.25;3.90;;;;;;;11.59;100.00;101720.47;6116578;23;20036;-82
2023/06/03 02:47:34;;;;;;;10.68;4.13;;;;;;;11.76;100.00;101744.00;6163149;23;20049;-81
2023/06/03 04:28:01;;;;;;;5.80;3.53;;;;;;;11.48;100.00;101778.81;6149422;23;20068;-82
2023/06/03 04:30:27;;;;;;;5.50;3.42;;;;;;;11.49;100.00;101775.06;6138837;23;20001;-82
2023/06/03 04:32:52;;;;;;;8.30;3.97;;;;;;;11.47;100.00;101778.91;6163651;23;20001;-82
2023/06/03 04:35:18;;;;;;;9.73;4.25;;;;;;;11.44;100.00;101765.41;6138965;23;20025;-82
2023/06/03 04:37:43;;;;;;;8.05;3.55;;;;;;;11.58;100.00;101782.69;6188594;23;20044;-81
2023/06/03 04:40:09;;;;;;;7.63;3.50;;;;;;;11.55;100.00;101773.78;6134019;23;20012;-83
2023/06/03 04:42:35;;;;;;;7.72;3.55;;;;;;;11.63;100.00;101776.88;6158643;23;20025;-80
2023/06/03 04:45:01;;;;;;;5.75;2.90;;;;;;;11.60;100.00;101766.13;6183577;23;20132;-80
2023/06/03 04:47:29;;;;;;;7.93;3.35;;;;;;;11.71;100.00;101770.88;6133388;23;20029;-81
2023/06/03 04:49:55;;;;;;;6.65;3.20;;;;;;;11.75;100.00;101772.41;6156991;23;19997;-84
2023/06/03 04:52:20;;;;;;;6.35;3.45;;;;;;;11.77;100.00;101768.56;6142992;23;20033;-85
2023/06/03 04:54:46;;;;;;;4.35;2.97;;;;;;;11.86;100.00;101772.53;6120783;23;20028;-82
2023/06/03 04:57:12;;;;;;;5.35;3.13;;;;;;;11.92;100.00;101777.63;6184275;23;20017;-84
2023/06/03 04:59:37;;;;;;;4.53;2.95;;;;;;;12.11;100.00;101784.56;6135244;23;20013;-80
2023/06/03 05:02:03;;;;;;;17.20;3.28;;;;;;;12.18;100.00;101780.38;6162398;23;20005;-83
2023/06/03 05:04:31;;;;;;;5.40;2.85;;;;;;;12.21;100.00;101788.41;6184542;23;20021;-82
2023/06/03 05:06:57;;;;;;;4.80;2.92;;;;;;;12.17;100.00;101775.00;6210048;23;20068;-84
2023/06/03 05:09:23;;;;;;;9.60;2.80;;;;;;;12.25;100.00;101780.84;6138093;23;20013;-82
2023/06/03 05:11:48;;;;;;;3.80;2.47;;;;;;;12.41;100.00;101781.50;6162185;23;20013;-83
2023/06/03 05:14:14;;;;;;;5.30;2.50;;;;;;;12.44;100.00;101772.16;6184287;23;19997;-81
2023/06/03 05:16:39;;;;;;;4.50;2.55;;;;;;;12.47;100.00;101761.81;6114011;23;20012;-83
2023/06/03 05:21:40;;;;;;;4.78;2.45;;;;;;;12.85;100.00;101784.72;6151861;23;20020;-85
2023/06/03 05:42:25;;;;;;;5.20;2.10;;;;;;;14.90;100.00;101779.81;6114764;23;20097;-80
2023/06/03 05:44:50;;;;;;;12.02;2.05;;;;;;;15.13;100.00;101774.28;6106820;23;20641;-80
2023/06/03 05:47:16;;;;;;;4.40;2.05;;;;;;;15.57;100.00;101783.44;6061150;23;20015;-79
2023/06/03 05:49:41;;;;;;;4.13;1.52;;;;;;;15.79;96.63;101790.78;6009297;23;20323;-79
2023/06/03 05:52:07;;;;;;;5.15;2.10;;;;;;;15.88;93.15;101784.44;6081784;23;20078;-79
2023/06/03 05:54:32;;;;;;;4.35;1.63;;;;;;;16.05;92.86;101777.44;6061001;23;20021;-79
2023/06/03 05:56:58;;;;;;;2.53;1.50;;;;;;;16.16;93.67;101782.03;6066510;23;20490;-85
2023/06/03 05:59:24;;;;;;;2.75;1.70;;;;;;;16.51;89.19;101783.53;6091312;23;20052;-79
2023/06/03 06:01:50;;;;;;;6.10;1.77;;;;;;;16.78;85.71;101779.31;6096566;23;20011;-81
2023/06/03 06:04:15;;;;;;;4.25;1.42;;;;;;;16.89;78.29;101782.03;6121425;23;20025;-79
2023/06/03 06:06:41;;;;;;;3.42;1.60;;;;;;;16.99;78.70;101780.16;6071850;23;20011;-80
2023/06/03 06:09:06;;;;;;;3.88;1.45;;;;;;;17.31;77.20;101770.75;6101220;23;19997;-80
2023/06/03 06:11:32;;;;;;;5.32;1.25;;;;;;;17.54;77.52;101785.19;6185729;23;20048;-83
2023/06/03 06:13:58;;;;;;;2.58;1.63;;;;;;;17.50;71.22;101777.34;6157928;23;20001;-80
2023/06/03 06:16:24;;;;;;;5.03;1.20;;;;;;;17.69;70.27;101773.69;6137244;23;19997;-81
2023/06/03 06:21:25;;;;;;;5.53;1.55;;;;;;;17.86;66.93;101785.97;6206859;23;20005;-82
2023/06/03 06:23:50;;;;;;;11.98;1.27;;;;;;;18.13;66.45;101782.47;6122093;23;20049;-81
2023/06/03 06:28:51;;;;;;;3.05;1.30;;;;;;;18.10;64.29;101804.91;6175211;23;20023;-80
2023/06/03 06:31:17;;;;;;;4.65;1.20;;;;;;;18.72;60.88;101786.81;6185825;23;20005;-79
2023/06/03 06:33:47;;;;;;;5.28;1.17;;;;;;;18.73;61.49;101802.44;6114470;23;20021;-79
2023/06/03 06:36:42;;;;;;;3.05;0.95;;;;;;;18.81;59.86;101796.13;6110540;23;20005;-80
2023/06/03 06:39:33;;;;;;;3.15;1.33;;;;;;;19.29;59.58;101797.81;6061275;23;20009;-81
2023/06/03 06:42:29;;;;;;;2.40;1.52;;;;;;;19.87;53.87;101801.22;6153411;23;20012;-82
2023/06/03 06:44:55;;;;;;;2.20;0.80;;;;;;;19.61;55.27;101795.53;6160790;23;20001;-82
2023/06/03 06:47:24;;;;;;;5.72;1.20;;;;;;;19.57;54.33;101806.09;6140156;23;20137;-82
2023/06/03 06:49:51;;;;;;;1.92;1.15;;;;;;;19.38;54.26;101795.13;6138613;23;20005;-82
2023/06/03 06:52:19;;;;;;;5.47;1.10;;;;;;;19.90;53.61;101791.69;6164560;23;20004;-82
2023/06/03 06:54:45;;;;;;;3.97;0.93;;;;;;;20.32;53.38;101794.66;6215702;23;20069;-82
2023/06/03 06:57:11;;;;;;;2.55;1.00;;;;;;;20.08;52.81;101798.09;6165098;23;19997;-81
2023/06/03 06:59:37;;;;;;;4.03;1.00;;;;;;;20.02;52.22;101780.16;6188883;23;20059;-83
2023/06/03 07:02:02;;;;;;;1.95;1.08;;;;;;;20.05;51.97;101797.56;6160527;23;20072;-84
2023/06/03 07:04:28;;;;;;;2.85;0.95;;;;;;;21.13;46.65;101808.38;6139078;23;19993;-84
2023/06/03 07:06:53;;;;;;;7.60;1.15;;;;;;;20.60;47.31;101790.84;6188135;23;19997;-81
2023/06/03 07:09:19;;;;;;;3.92;1.23;;;;;;;20.39;50.25;101798.50;6138437;23;20072;-81
2023/06/03 07:11:46;;;;;;;2.78;0.90;;;;;;;20.97;48.19;101801.66;6133156;23;20024;-86
2023/06/03 07:14:13;;;;;;;1.42;1.00;;;;;;;21.60;45.53;101797.56;6179091;23;20005;-81
2023/06/03 07:16:41;;;;;;;9.25;1.10;;;;;;;21.24;44.91;101792.22;6187247;23;20015;-81
2023/06/03 07:19:06;;;;;;;8.60;0.93;;;;;;;20.97;46.32;101804.44;6136065;23;20013;-80
2023/06/03 07:21:33;;;;;;;1.88;0.70;;;;;;;21.43;44.55;101805.00;6203294;23;20020;-79
2023/06/03 07:24:00;;;;;;;3.13;0.88;;;;;;;20.76;45.72;101802.09;6178093;23;20016;-80
2023/06/03 07:26:27;;;;;;;3.85;0.82;;;;;;;21.97;44.13;101806.50;6202797;23;20005;-80
2023/06/03 07:28:57;;;;;;;1.48;0.80;;;;;;;21.95;42.48;101805.81;6174393;23;20013;-80
2023/06/03 07:31:22;;;;;;;2.83;0.70;;;;;;;22.09;44.50;101801.47;6177881;23;20032;-81
2023/06/03 07:33:54;;;;;;;1.85;0.85;;;;;;;21.67;43.08;101800.53;6132496;23;20016;-81
2023/06/03 07:36:21;;;;;;;6.68;1.08;;;;;;;21.89;42.08;101806.47;6176378;23;20028;-81
2023/06/03 07:39:11;;;;;;;5.75;1.05;;;;;;;22.40;41.85;101804.44;6154094;23;20024;-81
2023/06/03 07:41:41;;;;;;;2.03;0.70;;;;;;;21.79;42.20;101804.75;6177402;23;20039;-81
2023/06/03 07:44:12;;;;;;;2.05;0.80;;;;;;;22.75;41.61;101805.91;6156034;23;20013;-84
2023/06/03 07:46:46;;;;;;;1.50;0.80;;;;;;;22.27;40.87;101806.84;6156547;23;20028;-82
2023/06/03 07:49:14;;;;;;;1.35;0.90;;;;;;;22.82;39.46;101806.06;6188626;23;20000;-81
2023/06/03 07:51:48;;;;;;;4.00;0.85;;;;;;;23.44;38.16;101801.66;6151186;23;20103;-82
2023/06/03 07:54:15;;;;;;;3.63;0.80;;;;;;;23.46;37.22;101802.34;6188561;23;19997;-83
2023/06/03 07:56:40;;;;;;;4.10;0.90;;;;;;;23.12;36.13;101795.19;6188562;23;20020;-82
2023/06/03 07:59:10;;;;;;;1.80;0.70;;;;;;;23.09;38.81;101792.75;6187910;23;19993;-82
2023/06/03 08:01:36;;;;;;;1.60;0.80;;;;;;;23.09;38.33;101802.00;6163259;23;20028;-83
2023/06/03 08:04:34;;;;;;;3.78;0.65;;;;;;;23.36;36.85;101807.28;6138948;23;20108;-83
2023/06/03 08:07:05;;;;;;;3.05;0.73;;;;;;;23.42;33.81;101796.25;6157965;23;20065;-82
2023/06/03 08:09:38;;;;;;;4.43;0.75;;;;;;;23.86;36.44;101800.38;6140905;23;20046;-83
2023/06/03 08:12:08;;;;;;;1.67;0.75;;;;;;;23.68;34.46;101800.66;6139108;23;20009;-83
2023/06/03 08:14:35;;;;;;;3.67;0.80;;;;;;;23.57;33.52;101799.13;6186676;23;20005;-83
2023/06/03 08:19:36;;;;;;;4.25;0.90;;;;;;;23.75;34.75;101801.63;6111275;23;20033;-86
2023/06/03 08:22:40;;;;;;;4.25;0.90;;;;;;;23.95;32.87;101801.16;6052006;23;20022;-85
2023/06/03 08:25:06;;;;;;;5.28;0.80;;;;;;;23.50;32.21;101792.53;6076353;23;20003;-85
2023/06/03 08:27:32;;;;;;;3.90;0.80;;;;;;;23.28;32.62;101786.72;6046301;23;20018;-86
2023/06/03 08:29:58;;;;;;;5.90;0.70;;;;;;;23.04;32.63;101778.44;6075259;23;20013;-86
2023/06/03 08:32:23;;;;;;;1.52;0.80;;;;;;;23.71;32.17;101771.41;6054539;23;20320;-86
2023/06/03 08:34:51;;;;;;;5.18;0.90;;;;;;;23.17;32.81;101777.84;6055436;23;20026;-86
2023/06/03 08:37:16;;;;;;;1.27;0.85;;;;;;;23.68;32.02;101803.44;6080212;23;20049;-88
2023/06/03 08:39:46;;;;;;;2.38;0.80;;;;;;;23.81;29.77;101802.84;6062704;23;20010;-86
2023/06/03 08:42:18;;;;;;;3.42;0.80;;;;;;;23.46;32.03;101774.38;6061822;23;20001;-87
2023/06/03 08:45:02;;;;;;;;;;;;;;;23.65;29.70;101795.41;6089066;23;20417;-87
2023/06/03 08:48:05;;;;;;;3.60;0.63;;;;;;;23.74;30.12;101788.69;6083648;23;19904;-87
2023/06/03 08:50:32;;;;;;;4.50;1.10;;;;;;;23.20;31.09;101785.88;6111794;23;20435;-86
2023/06/03 08:53:03;;;;;;;3.90;0.70;;;;;;;24.13;30.72;101789.66;6104450;23;20032;-86
2023/06/03 08:55:30;;;;;;;1.05;0.70;;;;;;;23.84;28.91;101785.69;6129699;23;20009;-87
2023/06/03 08:58:25;;;;;;;3.38;0.70;;;;;;;24.43;29.38;101787.78;6107391;23;20009;-87
2023/06/03 09:00:55;;;;;;;4.00;0.70;;;;;;;24.21;30.69;101778.38;6080391;23;20006;-88
2023/06/03 09:03:24;;;;;;;4.82;0.80;;;;;;;24.42;29.89;101782.41;6105377;23;20014;-86
2023/06/03 09:05:50;;;;;;;3.80;1.33;;;;;;;24.17;29.89;101794.69;6111185;23;20005;-88
2023/06/03 09:08:16;;;;;;;1.10;0.50;;;;;;;24.33;29.47;101781.59;6092427;23;20095;-88
2023/06/03 09:10:45;;;;;;;3.03;0.70;;;;;;;24.27;29.24;101794.44;6089880;23;20074;-88
2023/06/03 09:13:13;;;;;;;0.75;0.45;;;;;;;24.13;29.18;101787.72;6086482;23;20006;-87
2023/06/03 09:15:41;;;;;;;2.92;0.63;;;;;;;23.95;28.72;101785.25;6081202;23;20062;-85
2023/06/03 09:18:07;;;;;;;1.20;0.60;;;;;;;23.40;28.42;101783.50;6080249;23;20077;-85
2023/06/03 09:20:35;;;;;;;1.95;0.52;;;;;;;24.17;29.76;101791.91;6080738;23;20045;-86
2023/06/03 09:23:06;;;;;;;2.25;0.80;;;;;;;24.20;28.24;101802.72;6104087;23;20010;-87
2023/06/03 09:25:34;;;;;;;1.10;0.60;;;;;;;24.36;28.35;101798.88;6057163;23;20014;-87
2023/06/03 09:28:00;;;;;;;1.65;0.55;;;;;;;24.26;27.77;101758.22;6059233;23;20017;-88
2023/06/03 09:30:25;;;;;;;0.70;0.45;;;;;;;23.96;28.74;101775.81;6094469;23;20014;-87
2023/06/03 09:32:51;;;;;;;7.68;0.68;;;;;;;23.97;28.34;101774.75;6082083;23;20017;-87
2023/06/03 09:35:19;;;;;;;1.30;0.68;;;;;;;24.48;28.19;101790.00;6056044;23;20073;-86
2023/06/03 09:37:59;;;;;;;0.90;0.70;;;;;;;24.80;27.65;101794.44;6102999;23;20010;-86
2023/06/03 09:40:29;;;;;;;0.93;0.80;;;;;;;24.48;27.04;101788.09;6110271;23;20006;-87
2023/06/03 09:42:55;;;;;;;2.10;0.57;;;;;;;24.16;28.53;101792.09;6064602;23;20045;-86
2023/06/03 09:45:30;;;;;;;1.90;0.70;;;;;;;23.93;28.48;101784.56;6106609;23;20058;-86
2023/06/03 09:47:57;;;;;;;0.98;0.70;;;;;;;23.75;28.78;101770.00;6105689;23;20009;-85
2023/06/03 09:50:24;;;;;;;8.32;0.80;;;;;;;24.25;28.31;101795.66;6080634;23;20386;-84
2023/06/03 09:52:49;;;;;;;1.38;0.52;;;;;;;24.20;28.64;101794.31;6080014;23;20092;-86
2023/06/03 09:55:17;;;;;;;4.00;0.70;;;;;;;24.33;29.66;101796.44;6080621;23;20454;-86
2023/06/03 09:58:05;;;;;;;3.83;0.75;;;;;;;25.29;26.91;101792.97;6080955;23;20014;-87
2023/06/03 10:00:32;;;;;;;0.63;0.50;;;;;;;24.93;26.88;101757.34;6130283;23;20013;-87
2023/06/03 10:03:07;;;;;;;0.80;0.60;;;;;;;24.27;27.66;101786.03;6082250;23;20010;-86
2023/06/03 10:05:33;;;;;;;16.20;0.80;;;;;;;24.35;27.83;101780.34;6088954;23;20041;-86
2023/06/03 10:08:05;;;;;;;2.47;0.80;;;;;;;24.26;28.82;101792.69;6143622;23;20025;-85
2023/06/03 10:10:33;;;;;;;1.67;0.70;;;;;;;24.03;29.29;101770.31;6089078;23;20013;-86
2023/06/03 10:13:17;;;;;;;3.50;0.70;;;;;;;24.48;28.90;101782.50;6066104;23;20025;-85
2023/06/03 10:15:46;;;;;;;5.80;0.75;;;;;;;23.95;29.68;101785.25;6060455;23;20014;-86
2023/06/03 10:18:11;;;;;;;2.10;0.70;;;;;;;24.00;28.86;101796.75;6084684;23;20024;-86
2023/06/03 10:20:39;;;;;;;7.32;0.80;;;;;;;24.22;28.99;101792.19;6083770;23;20014;-85
2023/06/03 10:23:06;;;;;;;4.78;0.90;;;;;;;24.16;29.71;101794.88;6089127;23;20025;-87
2023/06/03 10:25:35;;;;;;;2.42;0.73;;;;;;;24.33;29.85;101770.41;6116037;23;20013;-86
2023/06/03 10:28:04;;;;;;;3.80;0.85;;;;;;;24.18;29.23;101773.16;6119073;23;20036;-87
2023/06/03 10:30:31;;;;;;;1.65;0.80;;;;;;;24.76;28.73;101785.56;6085378;23;20041;-86
2023/06/03 10:32:58;;;;;;;1.50;0.60;;;;;;;24.45;29.67;101788.47;6088526;23;20013;-86
2023/06/03 10:35:27;;;;;;;2.85;0.80;;;;;;;24.61;29.16;101767.00;6081183;23;20029;-88
2023/06/03 10:37:53;;;;;;;2.95;0.70;;;;;;;24.46;29.43;101761.34;6118904;23;20006;-87
2023/06/03 10:40:19;;;;;;;3.35;0.98;;;;;;;24.41;29.20;101759.13;6071210;23;20006;-87
2023/06/03 10:42:46;;;;;;;2.17;0.63;;;;;;;24.73;28.53;101790.66;6084283;23;20084;-87
2023/06/03 10:45:12;;;;;;;3.97;0.88;;;;;;;24.11;28.93;101759.06;6081126;23;20017;-88
2023/06/03 10:47:41;;;;;;;4.95;1.00;;;;;;;23.68;29.71;101778.28;6056756;23;20005;-88
2023/06/03 10:50:23;;;;;;;1.25;0.68;;;;;;;24.26;29.93;101770.28;6082480;23;20057;-86
2023/06/03 10:53:07;;;;;;;3.97;0.63;;;;;;;24.43;29.22;101784.13;6086980;23;20045;-86
2023/06/03 10:55:49;;;;;;;6.03;0.80;;;;;;;23.53;30.30;101788.50;6087218;23;20014;-85
2023/06/03 10:58:22;;;;;;;1.73;0.70;;;;;;;23.75;29.67;101779.25;6102664;23;20010;-87
2023/06/03 11:01:11;;;;;;;2.30;0.80;;;;;;;24.29;30.12;101774.66;6103260;23;20029;-86
2023/06/03 11:03:52;;;;;;;1.92;0.70;;;;;;;24.12;30.41;101780.41;6107904;23;20010;-86
2023/06/03 11:06:25;;;;;;;2.35;0.70;;;;;;;24.12;30.76;101779.50;6107662;23;20009;-86
2023/06/03 11:09:04;;;;;;;2.67;0.73;;;;;;;25.05;30.24;101780.97;6159520;23;20016;-86
2023/06/03 11:11:40;;;;;;;1.25;0.68;;;;;;;24.88;29.13;101779.47;6158400;23;20391;-86
2023/06/03 11:14:06;;;;;;;1.08;0.80;;;;;;;25.21;29.07;101774.28;6132822;23;20044;-87
2023/06/03 11:16:57;;;;;;;3.13;0.73;;;;;;;24.85;29.09;101786.31;6131980;23;20045;-87
2023/06/03 11:19:44;;;;;;;2.33;0.80;;;;;;;24.42;29.46;101769.25;6106706;23;20081;-85
2023/06/03 11:22:11;;;;;;;1.67;0.90;;;;;;;24.20;30.07;101762.66;6109424;23;20014;-88
2023/06/03 11:24:43;;;;;;;2.33;0.65;;;;;;;24.51;30.02;101776.50;6109122;23;20018;-87
2023/06/03 11:27:12;;;;;;;5.18;1.00;;;;;;;24.37;30.00;101774.56;6133436;23;20017;-86
2023/06/03 11:29:48;;;;;;;8.50;1.00;;;;;;;24.33;31.27;101770.41;6110560;23;20415;-87
2023/06/03 11:32:21;;;;;;;1.38;0.70;;;;;;;24.58;30.12;101773.88;6163127;23;20065;-85
2023/06/03 11:35:10;;;;;;;1.55;0.70;;;;;;;24.97;29.74;101777.41;6142982;23;20080;-86
2023/06/03 11:37:48;;;;;;;5.03;0.90;;;;;;;24.40;29.62;101775.06;6111430;23;20068;-86
2023/06/03 11:40:17;;;;;;;5.55;1.00;;;;;;;24.14;31.35;101766.22;6110021;23;20036;-87
2023/06/03 11:42:51;;;;;;;1.92;0.75;;;;;;;24.67;29.13;101760.63;6088023;23;20036;-87
2023/06/03 11:45:28;;;;;;;1.95;0.77;;;;;;;24.19;30.72;101770.19;6133890;23;20440;-86
2023/06/03 11:47:56;;;;;;;2.53;0.70;;;;;;;24.13;32.23;101764.47;6133942;23;20025;-86
2023/06/03 11:50:33;;;;;;;4.28;0.80;;;;;;;24.25;30.95;101764.88;6109737;23;20024;-85
2023/06/03 11:52:59;;;;;;;2.55;0.70;;;;;;;24.13;31.61;101748.53;6111654;23;20009;-86
2023/06/03 11:55:29;;;;;;;2.10;0.88;;;;;;;24.35;31.21;101751.47;6111241;23;20109;-85
2023/06/03 11:58:07;;;;;;;4.65;0.90;;;;;;;24.08;31.28;101765.03;6110460;23;20485;-86
2023/06/03 12:00:32;;;;;;;5.40;0.95;;;;;;;23.99;30.15;101758.66;6162516;23;20020;-85
2023/06/03 12:02:58;;;;;;;2.63;0.90;;;;;;;24.02;30.61;101755.47;6089173;23;20032;-86
2023/06/03 12:05:23;;;;;;;3.90;0.70;;;;;;;24.12;30.82;101732.81;6137936;23;20021;-85
2023/06/03 12:07:57;;;;;;;2.42;0.68;;;;;;;24.12;30.92;101755.22;6111022;23;20048;-86
2023/06/03 12:10:22;;;;;;;2.88;1.00;;;;;;;23.39;30.51;101737.91;6135047;23;20347;-86
2023/06/03 12:12:52;;;;;;;2.53;0.90;;;;;;;24.11;31.11;101749.81;6086528;23;20013;-86
2023/06/03 12:15:20;;;;;;;2.05;0.80;;;;;;;23.96;31.06;101736.63;6113983;23;20438;-87
2023/06/03 12:17:45;;;;;;;7.07;0.98;;;;;;;23.33;30.69;101730.25;6134808;23;20026;-86
2023/06/03 12:20:31;;;;;;;4.75;0.80;;;;;;;23.23;30.75;101741.66;6110973;23;20018;-88
2023/06/03 12:23:05;;;;;;;4.47;0.60;;;;;;;23.30;32.32;101753.88;6134897;23;20036;-87
2023/06/03 12:25:32;;;;;;;2.22;0.90;;;;;;;23.85;33.64;101748.28;6124324;23;20013;-82
2023/06/03 12:27:59;;;;;;;2.28;0.93;;;;;;;23.70;31.99;101750.13;6182324;23;19997;-82
2023/06/03 12:30:29;;;;;;;4.13;0.73;;;;;;;23.64;31.10;101746.13;6107467;23;19997;-81
2023/06/03 12:32:57;;;;;;;1.05;0.80;;;;;;;23.72;30.94;101736.81;6108152;23;20065;-82
2023/06/03 12:35:25;;;;;;;3.58;0.80;;;;;;;23.22;31.54;101736.25;6156735;23;20092;-82
2023/06/03 12:38:06;;;;;;;3.75;0.73;;;;;;;23.85;32.78;101749.13;6135699;23;20017;-84
2023/06/03 12:40:32;;;;;;;3.08;0.85;;;;;;;23.87;30.42;101746.16;6132168;23;20013;-86
2023/06/03 12:43:02;;;;;;;2.47;0.90;;;;;;;23.77;31.02;101712.81;6132539;23;20691;-85
2023/06/03 12:45:27;;;;;;;2.72;0.80;;;;;;;23.87;30.98;101739.69;6133929;23;20006;-83
2023/06/03 12:47:53;;;;;;;4.60;0.80;;;;;;;23.80;30.67;101747.94;6086085;23;20101;-84
2023/06/03 12:50:20;;;;;;;3.38;0.88;;;;;;;23.98;30.34;101737.31;6139016;23;20009;-85
2023/06/03 12:52:47;;;;;;;4.63;0.82;;;;;;;23.54;30.38;101712.81;6095726;23;20370;-85
2023/06/03 12:55:17;;;;;;;4.68;1.20;;;;;;;23.70;31.68;101723.00;6114319;23;20021;-85
2023/06/03 12:57:45;;;;;;;1.20;0.70;;;;;;;23.98;30.65;101723.31;6133130;23;20438;-85
2023/06/03 13:00:21;;;;;;;2.40;0.80;;;;;;;23.95;30.03;101743.28;6158955;23;20029;-86
2023/06/03 13:02:49;;;;;;;6.47;0.70;;;;;;;23.77;29.54;101728.72;6132795;23;20013;-86
2023/06/03 13:05:15;;;;;;;1.48;0.70;;;;;;;23.59;29.33;101727.09;6109807;23;20013;-86
2023/06/03 13:07:42;;;;;;;3.63;0.73;;;;;;;23.56;30.10;101735.00;6109645;23;20140;-86
2023/06/03 13:10:10;;;;;;;6.45;0.70;;;;;;;23.48;31.83;101722.84;6113339;23;20020;-85
2023/06/03 13:12:36;;;;;;;2.90;0.88;;;;;;;23.32;30.91;101717.34;6136134;23;20013;-86
2023/06/03 13:15:03;;;;;;;1.92;0.70;;;;;;;23.51;31.77;101720.72;6166739;23;20018;-86
2023/06/03 13:17:29;;;;;;;5.47;0.80;;;;;;;23.50;31.26;101717.06;6116423;23;20009;-85
2023/06/03 13:19:54;;;;;;;3.45;0.70;;;;;;;23.39;31.07;101692.34;6143681;23;20013;-84
2023/06/03 13:22:23;;;;;;;4.40;0.60;;;;;;;23.79;31.42;101721.91;6119496;23;19997;-86
2023/06/03 13:24:51;;;;;;;7.65;0.98;;;;;;;23.79;31.02;101724.69;6098945;23;20025;-87
2023/06/03 13:27:17;;;;;;;0.98;0.68;;;;;;;23.37;31.20;101705.63;6134564;23;20040;-86
2023/06/03 13:29:42;;;;;;;1.77;0.60;;;;;;;23.40;32.26;101713.63;6106180;23;20013;-85
2023/06/03 13:32:08;;;;;;;2.38;0.73;;;;;;;23.13;29.97;101707.50;6084042;23;20064;-86
2023/06/03 13:34:34;;;;;;;5.78;0.80;;;;;;;23.17;30.65;101702.41;6132722;23;20033;-86
2023/06/03 13:37:00;;;;;;;4.55;0.90;;;;;;;23.25;30.42;101724.72;6135981;23;20032;-86
2023/06/03 13:39:27;;;;;;;2.47;0.68;;;;;;;23.29;30.75;101724.19;6116538;23;20016;-86
2023/06/03 13:41:55;;;;;;;0.70;0.70;;;;;;;22.86;31.71;101729.28;6120797;23;20016;-85
2023/06/03 13:44:21;;;;;;;6.00;0.80;;;;;;;23.02;31.39;101716.25;6142657;23;20029;-84
2023/06/03 13:46:51;;;;;;;1.48;0.70;;;;;;;22.97;32.65;101693.59;6159159;23;20031;-84
2023/06/03 13:49:17;;;;;;;1.35;0.80;;;;;;;23.24;31.80;101723.00;6110714;23;20004;-84
2023/06/03 13:51:43;;;;;;;2.85;0.60;;;;;;;23.25;30.82;101711.63;6088544;23;20002;-84
2023/06/03 13:54:08;;;;;;;6.00;0.70;;;;;;;23.26;30.01;101715.28;6114278;23;20087;-84
2023/06/03 13:56:34;;;;;;;2.35;0.65;;;;;;;22.90;30.86;101705.50;6110670;23;20021;-85
2023/06/03 13:59:00;;;;;;;4.68;0.80;;;;;;;22.86;31.67;101692.97;6086636;23;20097;-85
2023/06/03 14:01:27;;;;;;;1.15;0.63;;;;;;;22.96;31.52;101712.28;6110688;23;20338;-84
2023/06/03 14:03:52;;;;;;;1.27;0.70;;;;;;;22.57;31.14;101694.47;6133562;23;20022;-85
2023/06/03 14:06:18;;;;;;;1.65;0.63;;;;;;;22.62;31.72;101707.91;6159290;23;20016;-84
2023/06/03 14:08:44;;;;;;;4.55;0.70;;;;;;;22.74;31.78;101681.34;6084357;23;20013;-84
2023/06/03 14:11:10;;;;;;;2.55;0.60;;;;;;;22.83;31.44;101682.16;6133316;23;20064;-85
2023/06/03 14:13:36;;;;;;;0.88;0.60;;;;;;;22.86;30.39;101665.03;6158429;23;20012;-84
2023/06/03 14:16:02;;;;;;;4.85;0.70;;;;;;;22.87;30.76;101691.03;6107627;23;20010;-84
2023/06/03 14:18:28;;;;;;;1.48;0.70;;;;;;;22.84;30.12;101680.22;6129983;23;20040;-85
2023/06/03 14:20:53;;;;;;;2.15;0.68;;;;;;;23.16;32.09;101683.94;6132599;23;20446;-85
2023/06/03 14:23:19;;;;;;;6.65;0.75;;;;;;;22.72;31.26;101686.22;6108133;23;20025;-85
2023/06/03 14:25:45;;;;;;;1.30;0.60;;;;;;;22.73;31.25;101681.50;6134010;23;20102;-85
2023/06/03 14:28:10;;;;;;;1.98;0.75;;;;;;;22.66;31.76;101659.03;6109217;23;20013;-86
2023/06/03 14:30:36;;;;;;;1.15;0.60;;;;;;;23.04;31.68;101694.63;6134064;23;20013;-85
2023/06/03 14:33:01;;;;;;;2.50;0.60;;;;;;;22.97;31.10;101679.63;6107516;23;20017;-85
2023/06/03 14:35:27;;;;;;;0.70;0.60;;;;;;;22.90;30.82;101679.50;6105957;23;20342;-86
2023/06/03 14:37:52;;;;;;;1.77;0.60;;;;;;;23.04;30.03;101677.88;6130785;23;20036;-86
2023/06/03 14:40:18;;;;;;;1.95;0.60;;;;;;;22.87;29.98;101661.16;6108601;23;20000;-86
2023/06/03 14:42:43;;;;;;;3.13;0.82;;;;;;;22.91;31.33;101662.56;6110639;23;20017;-85
2023/06/03 14:45:10;;;;;;;2.97;0.70;;;;;;;22.93;30.94;101667.97;6111315;23;20014;-86
2023/06/03 14:47:35;;;;;;;3.22;0.60;;;;;;;22.82;30.05;101676.75;6107842;23;20013;-87
2023/06/03 14:50:02;;;;;;;4.43;0.60;;;;;;;22.57;29.55;101657.31;6088957;23;20016;-82
2023/06/03 14:52:28;;;;;;;2.13;0.70;;;;;;;22.52;31.01;101654.22;6133114;23;20014;-84
2023/06/03 14:54:54;;;;;;;2.20;0.65;;;;;;;22.50;31.47;101646.00;6109712;23;19993;-82
2023/06/03 14:57:20;;;;;;;2.08;0.50;;;;;;;22.58;31.02;101661.88;6159237;23;20013;-83
2023/06/03 14:59:46;;;;;;;3.33;0.70;;;;;;;22.65;29.91;101650.84;6182514;23;20028;-80
2023/06/03 15:02:11;;;;;;;1.02;0.70;;;;;;;22.76;30.50;101656.88;6158868;23;20026;-81
2023/06/03 15:04:37;;;;;;;1.35;0.60;;;;;;;22.81;29.00;101663.81;6158676;23;20006;-82
2023/06/03 15:07:02;;;;;;;0.85;0.50;;;;;;;22.79;30.02;101661.22;6133565;23;19998;-81
2023/06/03 15:09:28;;;;;;;3.47;0.60;;;;;;;22.63;30.32;101666.88;6183712;23;20010;-83
2023/06/03 15:11:53;;;;;;;1.15;0.60;;;;;;;22.61;29.19;101655.03;6130024;23;20018;-85
2023/06/03 15:14:25;;;;;;;3.80;0.60;;;;;;;22.52;30.73;101645.84;6164391;23;20013;-90
2023/06/03 15:16:51;;;;;;;6.43;0.70;;;;;;;22.75;30.79;101651.47;6082831;23;20056;-86
2023/06/03 15:19:16;;;;;;;3.17;0.77;;;;;;;22.64;29.71;101657.47;6143693;23;20009;-86
2023/06/03 15:21:42;;;;;;;3.67;0.45;;;;;;;22.67;29.58;101643.16;6120444;23;20028;-87
2023/06/03 15:24:08;;;;;;;3.55;0.50;;;;;;;22.52;28.67;101623.50;6147801;23;20087;-86
2023/06/03 15:26:33;;;;;;;2.53;0.60;;;;;;;22.53;29.64;101645.66;6119657;23;20065;-86
2023/06/03 15:29:02;;;;;;;3.40;0.50;;;;;;;22.48;29.21;101658.41;6144010;23;20100;-86
2023/06/03 15:31:28;;;;;;;2.25;0.50;;;;;;;22.63;30.54;101661.28;6122541;23;20369;-87
2023/06/03 15:33:53;;;;;;;0.40;0.40;;;;;;;22.53;28.19;101665.19;6110891;23;20017;-85
2023/06/03 15:36:20;;;;;;;4.10;0.60;;;;;;;22.63;29.54;101659.41;6116364;23;20009;-86
2023/06/03 15:38:45;;;;;;;3.65;0.50;;;;;;;22.35;28.96;101636.63;6112647;23;20028;-79
2023/06/03 15:41:11;;;;;;;3.83;0.60;;;;;;;22.38;29.78;101650.22;6110476;23;20452;-80
2023/06/03 15:43:37;;;;;;;1.67;0.60;;;;;;;22.29;30.26;101648.53;6135229;23;20456;-79
2023/06/03 15:46:03;;;;;;;1.60;0.50;;;;;;;22.47;29.93;101662.25;6109425;23;20012;-81
2023/06/03 15:48:29;;;;;;;0.63;0.43;;;;;;;22.45;29.89;101653.16;6110877;23;20028;-80
2023/06/03 15:50:55;;;;;;;2.58;0.45;;;;;;;22.17;30.47;101654.47;6110517;23;20445;-80
2023/06/03 15:53:20;;;;;;;0.75;0.50;;;;;;;22.07;31.62;101645.44;6161123;23;20013;-81
2023/06/03 15:55:46;;;;;;;4.00;0.47;;;;;;;22.05;31.29;101644.72;6134801;23;20024;-80
2023/06/03 15:58:11;;;;;;;5.88;0.50;;;;;;;22.11;31.47;101646.81;6133218;23;20434;-80
2023/06/03 16:00:37;;;;;;;1.75;0.57;;;;;;;22.25;31.50;101638.75;6110226;23;20044;-81
2023/06/03 16:03:05;;;;;;;1.40;0.52;;;;;;;22.21;31.08;101638.22;6160126;23;20036;-79
2023/06/03 16:05:32;;;;;;;1.85;0.52;;;;;;;22.17;30.96;101637.72;6183142;23;20088;-80